»·PEaware :: LBQ783 KSBA-KMRY

LBQ783 :: KSBA-KMRY

FLIGHT INFORMATION

Flight Status: Arrived
Operator: Unknown
More flights by this operator :: More flights under this callsign
Pilot: Walter H. (552)
Aircraft: BEECH AIRCRAFT A90-E90 KING AIR
(BE9L)
More flights by this aircraft type
Origin: KSBA Santa Barbara Mun
United States
Destination: KMRY Monterey Peninsula
United States
More flights between these airports :: More routes between these airports
Route: +RZS MQO BSR
File this flight plan on PilotEdge
Remarks:
Altitude:
(Current/Filed)
10,000ft
Speed:
(Current/Filed)
250kts
Departed: 10-Jul-20 12:38 PM
Arrived: 10-Jul-20 01:31 PM
Distance/Time
Traveled:
162nm/0:53
Distance/Time
To Go:
Arrived

Flight Plot

Page will automatically refresh every two minutes.

Flight plan parsing failed; only flown route is shown


Map Options




Map Legend


Flown Route
Filed Route
Departure Airport
Arrival Airport
Navaid (VOR, NDB)
Fix

Horizontal Profiles

Position Reports

Time Latitude Longitude Heading Altitude Ground
Speed
10-Jul-20 12:18 34.432564 -119.835104 71 13ft 0kts
10-Jul-20 12:19 34.432564 -119.835104 71 13ft 0kts
10-Jul-20 12:20 34.432564 -119.835104 71 13ft 0kts
10-Jul-20 12:21 34.432564 -119.835104 71 13ft 0kts
10-Jul-20 12:22 34.432564 -119.835104 71 13ft 0kts
10-Jul-20 12:23 34.432564 -119.835104 71 13ft 0kts
10-Jul-20 12:24 34.432564 -119.835104 71 13ft 0kts
10-Jul-20 12:25 34.432564 -119.835104 72 13ft 0kts
10-Jul-20 12:26 34.432674 -119.834691 73 13ft 4kts
10-Jul-20 12:27 34.432864 -119.833888 73 13ft 0kts
10-Jul-20 12:29 34.432564 -119.835104 71 13ft 0kts
10-Jul-20 12:30 34.432564 -119.835104 71 13ft 0kts
10-Jul-20 12:31 34.432564 -119.835104 71 13ft 0kts
10-Jul-20 12:32 34.432515 -119.834947 173 13ft 0kts
10-Jul-20 12:33 34.430058 -119.835299 180 10ft 21kts
10-Jul-20 12:34 34.428749 -119.834646 172 10ft 0kts
10-Jul-20 12:35 34.428749 -119.834646 172 10ft 0kts
10-Jul-20 12:36 34.428749 -119.834646 172 10ft 0kts
10-Jul-20 12:37 34.427823 -119.848877 270 192ft 119kts
10-Jul-20 12:38 34.423396 -119.896754 258 1628ft 151kts
10-Jul-20 12:39 34.417189 -119.943719 259 3120ft 155kts
10-Jul-20 12:40 34.410628 -119.995806 259 4578ft 158kts
10-Jul-20 12:41 34.404151 -120.049036 259 5848ft 162kts
10-Jul-20 12:42 34.397661 -120.103708 259 7016ft 166kts
10-Jul-20 12:43 34.406794 -120.153734 340 8061ft 181kts
10-Jul-20 12:44 34.452696 -120.180020 328 9049ft 184kts
10-Jul-20 12:45 34.497383 -120.211171 327 9603ft 187kts
10-Jul-20 12:46 34.542793 -120.243728 327 9996ft 197kts
10-Jul-20 12:47 34.591935 -120.278089 332 10112ft 205kts
10-Jul-20 12:48 34.642251 -120.314679 326 10004ft 215kts
10-Jul-20 12:49 34.693585 -120.352402 327 10008ft 217kts
10-Jul-20 12:50 34.741760 -120.387308 327 10013ft 218kts
10-Jul-20 12:51 34.790564 -120.422654 327 10019ft 217kts
10-Jul-20 12:52 34.840081 -120.458572 327 10024ft 207kts
10-Jul-20 12:53 34.890436 -120.495156 327 10024ft 214kts
10-Jul-20 12:54 34.941938 -120.532644 328 10026ft 216kts
10-Jul-20 12:55 34.993573 -120.570257 329 10024ft 216kts
10-Jul-20 12:56 35.044922 -120.607720 330 10019ft 214kts
10-Jul-20 12:57 35.095778 -120.644876 330 10017ft 213kts
10-Jul-20 12:58 35.146469 -120.681952 329 10013ft 213kts
10-Jul-20 12:59 35.197241 -120.719153 329 10013ft 213kts
10-Jul-20 13:00 35.247895 -120.756326 329 10013ft 213kts
10-Jul-20 13:01 35.295488 -120.800042 323 10013ft 214kts
10-Jul-20 13:02 35.342684 -120.844300 322 10013ft 213kts
10-Jul-20 13:03 35.389867 -120.888600 322 10012ft 213kts
10-Jul-20 13:04 35.436892 -120.932818 322 10009ft 213kts
10-Jul-20 13:05 35.483908 -120.977172 323 10007ft 214kts
10-Jul-20 13:06 35.531075 -121.021607 323 10004ft 213kts
10-Jul-20 13:07 35.578160 -121.066031 321 10004ft 213kts
10-Jul-20 13:08 35.624947 -121.110377 320 10004ft 212kts
10-Jul-20 13:09 35.671660 -121.154654 320 10004ft 212kts
10-Jul-20 13:10 35.718363 -121.198978 320 10004ft 211kts
10-Jul-20 13:11 35.764493 -121.242842 320 10004ft 209kts
10-Jul-20 13:12 35.810548 -121.286691 320 10004ft 209kts
10-Jul-20 13:13 35.856515 -121.330531 320 10005ft 208kts
10-Jul-20 13:14 35.902168 -121.374132 320 10009ft 207kts
10-Jul-20 13:15 35.947851 -121.417809 320 9974ft 208kts
10-Jul-20 13:16 35.993421 -121.461445 320 9968ft 207kts
10-Jul-20 13:17 36.039017 -121.505177 320 9974ft 208kts
10-Jul-20 13:18 36.084912 -121.549286 320 9979ft 209kts
10-Jul-20 13:19 36.130584 -121.593221 320 9983ft 207kts
10-Jul-20 13:20 36.176037 -121.637030 320 9988ft 206kts
10-Jul-20 13:21 36.228756 -121.665461 336 9989ft 209kts
10-Jul-20 13:22 36.288033 -121.667130 3 9603ft 226kts
10-Jul-20 13:23 36.353765 -121.659352 3 8242ft 238kts
10-Jul-20 13:24 36.417928 -121.651418 3 7092ft 217kts
10-Jul-20 13:25 36.475493 -121.647943 353 6446ft 208kts
10-Jul-20 13:26 36.527236 -121.673237 309 5577ft 198kts
10-Jul-20 13:27 36.550726 -121.732392 290 3814ft 144kts
10-Jul-20 13:28 36.564593 -121.778565 297 2092ft 147kts
10-Jul-20 13:30 36.577661 -121.816884 295 651ft 100kts
10-Jul-20 13:31 36.586106 -121.841914 294 219ft 38kts
10-Jul-20 13:32 36.586529 -121.845768 126 196ft 13kts
10-Jul-20 13:33 36.584894 -121.843926 40 220ft 0kts

Navigation Log

Ident Type
Flight plan parsing failed, navigation log unavailable